sensor_id;sensor_type;location;lat;lon;timestamp;pressure;altitude;pressure_sealevel;temperature;humidity
54361;BME280;40258;53.936;27.540;2022-09-03T00:01:53;99918.31;;;6.97;94.91
54361;BME280;40258;53.936;27.540;2022-09-03T00:04:30;99918.78;;;7.04;94.68
54361;BME280;40258;53.936;27.540;2022-09-03T00:07:05;99927.38;;;7.16;94.64
54361;BME280;40258;53.936;27.540;2022-09-03T00:09:44;99937.06;;;7.23;93.85
54361;BME280;40258;53.936;27.540;2022-09-03T00:12:18;99923.50;;;7.33;93.35
54361;BME280;40258;53.936;27.540;2022-09-03T00:14:55;99931.53;;;7.43;92.39
54361;BME280;40258;53.936;27.540;2022-09-03T00:17:29;99929.56;;;7.54;91.92
54361;BME280;40258;53.936;27.540;2022-09-03T00:20:02;99926.09;;;7.53;91.80
54361;BME280;40258;53.936;27.540;2022-09-03T00:22:37;99928.50;;;7.55;91.91
54361;BME280;40258;53.936;27.540;2022-09-03T00:25:12;99930.88;;;7.62;91.55
54361;BME280;40258;53.936;27.540;2022-09-03T00:27:43;99925.47;;;7.67;92.45
54361;BME280;40258;53.936;27.540;2022-09-03T00:30:15;99918.88;;;7.78;91.98
54361;BME280;40258;53.936;27.540;2022-09-03T00:32:48;99928.28;;;7.86;92.18
54361;BME280;40258;53.936;27.540;2022-09-03T00:35:24;99922.03;;;7.90;92.18
54361;BME280;40258;53.936;27.540;2022-09-03T00:37:54;99926.59;;;7.95;92.28
54361;BME280;40258;53.936;27.540;2022-09-03T00:40:41;99929.00;;;7.97;92.28
54361;BME280;40258;53.936;27.540;2022-09-03T00:43:22;99928.44;;;8.00;92.43
54361;BME280;40258;53.936;27.540;2022-09-03T00:46:06;99925.16;;;8.03;92.61
54361;BME280;40258;53.936;27.540;2022-09-03T00:49:03;99928.91;;;8.07;92.92
54361;BME280;40258;53.936;27.540;2022-09-03T00:51:40;99925.19;;;7.98;93.97
54361;BME280;40258;53.936;27.540;2022-09-03T00:54:17;99928.44;;;8.00;94.38
54361;BME280;40258;53.936;27.540;2022-09-03T00:56:55;99930.56;;;8.03;94.52
54361;BME280;40258;53.936;27.540;2022-09-03T00:59:36;99930.28;;;8.04;94.78
54361;BME280;40258;53.936;27.540;2022-09-03T01:02:16;99921.84;;;8.11;94.49
54361;BME280;40258;53.936;27.540;2022-09-03T01:04:57;99939.13;;;8.15;94.69
54361;BME280;40258;53.936;27.540;2022-09-03T01:07:39;99928.81;;;8.17;95.00
54361;BME280;40258;53.936;27.540;2022-09-03T01:10:19;99935.28;;;8.21;94.85
54361;BME280;40258;53.936;27.540;2022-09-03T01:12:58;99934.66;;;8.30;94.35
54361;BME280;40258;53.936;27.540;2022-09-03T01:15:35;99933.84;;;8.29;94.27
54361;BME280;40258;53.936;27.540;2022-09-03T01:18:18;99944.38;;;8.31;94.15
54361;BME280;40258;53.936;27.540;2022-09-03T01:21:03;99932.22;;;8.28;93.98
54361;BME280;40258;53.936;27.540;2022-09-03T01:24:03;99934.72;;;8.24;94.23
54361;BME280;40258;53.936;27.540;2022-09-03T01:27:02;99934.72;;;8.24;94.73
54361;BME280;40258;53.936;27.540;2022-09-03T01:29:42;99933.94;;;8.19;95.40
54361;BME280;40258;53.936;27.540;2022-09-03T01:32:23;99941.25;;;8.18;95.53
54361;BME280;40258;53.936;27.540;2022-09-03T01:35:06;99938.00;;;8.16;95.78
54361;BME280;40258;53.936;27.540;2022-09-03T01:37:50;99937.44;;;8.19;95.70
54361;BME280;40258;53.936;27.540;2022-09-03T01:40:31;99944.41;;;8.25;95.45
54361;BME280;40258;53.936;27.540;2022-09-03T01:43:20;99938.50;;;8.23;95.20
54361;BME280;40258;53.936;27.540;2022-09-03T01:45:57;99947.97;;;8.21;95.62
54361;BME280;40258;53.936;27.540;2022-09-03T01:48:41;99938.56;;;8.13;95.98
54361;BME280;40258;53.936;27.540;2022-09-03T01:51:19;99939.63;;;8.17;95.80
54361;BME280;40258;53.936;27.540;2022-09-03T01:54:26;99948.03;;;8.16;96.43
54361;BME280;40258;53.936;27.540;2022-09-03T01:57:34;99945.03;;;8.17;96.25
54361;BME280;40258;53.936;27.540;2022-09-03T02:00:08;99939.63;;;8.17;95.75
54361;BME280;40258;53.936;27.540;2022-09-03T02:02:42;99938.00;;;8.16;96.17
54361;BME280;40258;53.936;27.540;2022-09-03T02:05:16;99936.94;;;8.17;96.04
54361;BME280;40258;53.936;27.540;2022-09-03T02:07:47;99937.22;;;8.16;96.29
54361;BME280;40258;53.936;27.540;2022-09-03T02:10:20;99938.56;;;8.13;96.78
54361;BME280;40258;53.936;27.540;2022-09-03T02:12:53;99940.75;;;8.11;96.52
54361;BME280;40258;53.936;27.540;2022-09-03T02:15:25;99943.19;;;8.13;96.86
54361;BME280;40258;53.936;27.540;2022-09-03T02:18:00;99938.13;;;8.06;97.25
54361;BME280;40258;53.936;27.540;2022-09-03T02:20:29;99934.88;;;8.04;97.59
54361;BME280;40258;53.936;27.540;2022-09-03T02:22:58;99944.66;;;8.00;97.95
54361;BME280;40258;53.936;27.540;2022-09-03T02:25:32;99936.25;;;8.01;97.91
54361;BME280;40258;53.936;27.540;2022-09-03T02:28:04;99937.06;;;8.02;97.40
54361;BME280;40258;53.936;27.540;2022-09-03T02:30:33;99933.84;;;8.00;97.21
54361;BME280;40258;53.936;27.540;2022-09-03T02:33:03;99937.09;;;7.97;97.52
54361;BME280;40258;53.936;27.540;2022-09-03T02:35:32;99939.31;;;7.89;97.18
54361;BME280;40258;53.936;27.540;2022-09-03T02:38:10;99935.59;;;7.85;97.64
54361;BME280;40258;53.936;27.540;2022-09-03T02:40:38;99944.78;;;7.84;97.87
54361;BME280;40258;53.936;27.540;2022-09-03T02:43:12;99939.97;;;7.76;98.75
54361;BME280;40258;53.936;27.540;2022-09-03T02:45:46;99943.31;;;7.63;99.84
54361;BME280;40258;53.936;27.540;2022-09-03T02:48:21;99941.22;;;7.49;100.00
54361;BME280;40258;53.936;27.540;2022-09-03T02:50:51;99943.97;;;7.44;100.00
54361;BME280;40258;53.936;27.540;2022-09-03T02:53:19;99941.78;;;7.46;100.00
54361;BME280;40258;53.936;27.540;2022-09-03T02:55:48;99938.03;;;7.42;100.00
54361;BME280;40258;53.936;27.540;2022-09-03T02:58:16;99943.75;;;7.35;100.00
54361;BME280;40258;53.936;27.540;2022-09-03T03:00:45;99954.84;;;7.34;100.00
54361;BME280;40258;53.936;27.540;2022-09-03T03:03:16;99943.53;;;7.27;100.00
54361;BME280;40258;53.936;27.540;2022-09-03T03:05:48;99956.03;;;7.12;100.00
54361;BME280;40258;53.936;27.540;2022-09-03T03:08:19;99950.69;;;6.97;100.00
54361;BME280;40258;53.936;27.540;2022-09-03T03:10:52;99949.88;;;6.96;100.00
54361;BME280;40258;53.936;27.540;2022-09-03T03:13:23;99949.28;;;7.10;100.00
54361;BME280;40258;53.936;27.540;2022-09-03T03:15:54;99952.47;;;7.22;100.00
54361;BME280;40258;53.936;27.540;2022-09-03T03:18:24;99945.16;;;7.28;100.00
54361;BME280;40258;53.936;27.540;2022-09-03T03:20:54;99945.16;;;7.28;100.00
54361;BME280;40258;53.936;27.540;2022-09-03T03:23:22;99933.25;;;7.34;100.00
54361;BME280;40258;53.936;27.540;2022-09-03T03:25:51;99939.69;;;7.38;100.00
54361;BME280;40258;53.936;27.540;2022-09-03T03:28:19;99941.31;;;7.39;100.00
54361;BME280;40258;53.936;27.540;2022-09-03T03:30:48;99943.41;;;7.47;100.00
54361;BME280;40258;53.936;27.540;2022-09-03T03:33:18;99934.22;;;7.48;99.86
54361;BME280;40258;53.936;27.540;2022-09-03T03:35:48;99933.66;;;7.51;100.00
54361;BME280;40258;53.936;27.540;2022-09-03T03:38:17;99939.81;;;7.62;99.10
54361;BME280;40258;53.936;27.540;2022-09-03T03:40:46;99934.88;;;7.69;98.54
54361;BME280;40258;53.936;27.540;2022-09-03T03:43:14;99939.72;;;7.72;97.43
54361;BME280;40258;53.936;27.540;2022-09-03T03:45:43;99936.16;;;7.77;97.22
54361;BME280;40258;53.936;27.540;2022-09-03T03:48:12;99941.28;;;7.84;96.39
54361;BME280;40258;53.936;27.540;2022-09-03T03:50:40;99945.91;;;7.78;96.82
54361;BME280;40258;53.936;27.540;2022-09-03T03:53:11;99932.88;;;7.85;96.52
54361;BME280;40258;53.936;27.540;2022-09-03T03:55:39;99938.97;;;7.96;96.05
54361;BME280;40258;53.936;27.540;2022-09-03T03:58:08;99937.78;;;8.13;95.18
54361;BME280;40258;53.936;27.540;2022-09-03T04:00:36;99944.94;;;8.27;94.70
54361;BME280;40258;53.936;27.540;2022-09-03T04:03:05;99943.16;;;8.47;94.06
54361;BME280;40258;53.936;27.540;2022-09-03T04:05:34;99950.53;;;8.66;93.28
54361;BME280;40258;53.936;27.540;2022-09-03T04:08:02;99948.72;;;8.85;92.35
54361;BME280;40258;53.936;27.540;2022-09-03T04:10:33;99953.63;;;9.02;91.78
54361;BME280;40258;53.936;27.540;2022-09-03T04:13:01;99952.06;;;9.20;90.14
54361;BME280;40258;53.936;27.540;2022-09-03T04:15:30;99956.09;;;9.42;89.40
54361;BME280;40258;53.936;27.540;2022-09-03T04:17:58;99955.22;;;9.65;87.45
54361;BME280;40258;53.936;27.540;2022-09-03T04:20:27;99949.13;;;9.93;86.58
54361;BME280;40258;53.936;27.540;2022-09-03T04:22:59;99951.59;;;10.22;84.83
54361;BME280;40258;53.936;27.540;2022-09-03T04:25:28;99953.78;;;10.53;83.61
54361;BME280;40258;53.936;27.540;2022-09-03T04:27:59;99962.66;;;10.72;81.42
54361;BME280;40258;53.936;27.540;2022-09-03T04:30:27;99955.72;;;10.80;80.30
54361;BME280;40258;53.936;27.540;2022-09-03T04:32:56;99954.53;;;10.86;80.40
54361;BME280;40258;53.936;27.540;2022-09-03T04:35:25;99952.72;;;10.95;79.34
54361;BME280;40258;53.936;27.540;2022-09-03T04:37:59;99959.53;;;11.07;78.53
54361;BME280;40258;53.936;27.540;2022-09-03T04:40:30;99956.88;;;11.15;78.61
54361;BME280;40258;53.936;27.540;2022-09-03T04:43:00;99962.13;;;11.26;77.76
54361;BME280;40258;53.936;27.540;2022-09-03T04:45:28;99969.53;;;11.34;77.62
54361;BME280;40258;53.936;27.540;2022-09-03T04:47:58;99954.22;;;11.52;77.14
54361;BME280;40258;53.936;27.540;2022-09-03T04:50:29;99962.31;;;11.66;76.63
54361;BME280;40258;53.936;27.540;2022-09-03T04:53:02;99950.72;;;11.74;76.07
54361;BME280;40258;53.936;27.540;2022-09-03T04:55:33;99946.94;;;11.84;75.85
54361;BME280;40258;53.936;27.540;2022-09-03T04:58:04;99953.34;;;12.02;75.09
54361;BME280;40258;53.936;27.540;2022-09-03T05:00:35;99950.72;;;12.19;74.54
54361;BME280;40258;53.936;27.540;2022-09-03T05:03:03;99954.06;;;12.39;74.68
54361;BME280;40258;53.936;27.540;2022-09-03T05:05:32;99953.44;;;12.51;74.56
54361;BME280;40258;53.936;27.540;2022-09-03T05:08:01;99950.47;;;12.61;73.23
54361;BME280;40258;53.936;27.540;2022-09-03T05:10:30;99960.63;;;12.78;71.85
54361;BME280;40258;53.936;27.540;2022-09-03T05:13:01;99958.09;;;12.90;70.29
54361;BME280;40258;53.936;27.540;2022-09-03T05:15:32;99956.53;;;13.07;70.40
54361;BME280;40258;53.936;27.540;2022-09-03T05:18:01;99957.69;;;13.23;70.25
54361;BME280;40258;53.936;27.540;2022-09-03T05:20:30;99959.78;;;13.26;68.65
54361;BME280;40258;53.936;27.540;2022-09-03T05:23:01;99954.56;;;13.39;68.14
54361;BME280;40258;53.936;27.540;2022-09-03T05:25:30;99963.88;;;13.46;65.74
54361;BME280;40258;53.936;27.540;2022-09-03T05:27:59;99963.72;;;13.60;66.24
54361;BME280;40258;53.936;27.540;2022-09-03T05:30:30;99961.31;;;13.76;65.28
54361;BME280;40258;53.936;27.540;2022-09-03T05:32:58;99962.91;;;13.95;64.40
54361;BME280;40258;53.936;27.540;2022-09-03T05:35:27;99964.31;;;14.10;63.08
54361;BME280;40258;53.936;27.540;2022-09-03T05:37:55;99963.47;;;14.27;60.92
54361;BME280;40258;53.936;27.540;2022-09-03T05:40:25;99969.53;;;14.41;58.59
54361;BME280;40258;53.936;27.540;2022-09-03T05:42:55;99967.25;;;14.61;57.70
54361;BME280;40258;53.936;27.540;2022-09-03T05:45:25;99970.25;;;14.77;56.79
54361;BME280;40258;53.936;27.540;2022-09-03T05:47:59;99971.16;;;14.89;54.38
54361;BME280;40258;53.936;27.540;2022-09-03T05:50:28;99968.84;;;15.00;52.74
54361;BME280;40258;53.936;27.540;2022-09-03T05:52:58;99970.03;;;15.20;52.70
54361;BME280;40258;53.936;27.540;2022-09-03T05:55:27;99958.84;;;15.34;51.50
54361;BME280;40258;53.936;27.540;2022-09-03T05:57:55;99965.13;;;15.56;52.20
54361;BME280;40258;53.936;27.540;2022-09-03T06:00:24;99956.09;;;15.76;51.77
54361;BME280;40258;53.936;27.540;2022-09-03T06:02:53;99956.63;;;15.91;50.76
54361;BME280;40258;53.936;27.540;2022-09-03T06:05:23;99963.56;;;16.09;50.58
54361;BME280;40258;53.936;27.540;2022-09-03T06:07:51;99954.47;;;16.17;49.11
54361;BME280;40258;53.936;27.540;2022-09-03T06:10:20;99952.91;;;16.29;48.46
54361;BME280;40258;53.936;27.540;2022-09-03T06:12:51;99956.69;;;16.37;47.86
54361;BME280;40258;53.936;27.540;2022-09-03T06:15:19;99955.69;;;16.53;47.63
54361;BME280;40258;53.936;27.540;2022-09-03T06:17:47;99955.91;;;16.61;47.49
54361;BME280;40258;53.936;27.540;2022-09-03T06:20:16;99964.13;;;16.73;46.14
54361;BME280;40258;53.936;27.540;2022-09-03T06:22:49;99952.72;;;16.71;45.99
54361;BME280;40258;53.936;27.540;2022-09-03T06:25:19;99953.31;;;16.77;46.11
54361;BME280;40258;53.936;27.540;2022-09-03T06:27:48;99961.66;;;16.80;45.52
54361;BME280;40258;53.936;27.540;2022-09-03T06:30:17;99954.59;;;16.92;45.95
54361;BME280;40258;53.936;27.540;2022-09-03T06:32:46;99965.22;;;17.05;45.12
54361;BME280;40258;53.936;27.540;2022-09-03T06:35:16;99968.41;;;16.95;44.90
54361;BME280;40258;53.936;27.540;2022-09-03T06:37:44;99971.03;;;17.16;45.72
54361;BME280;40258;53.936;27.540;2022-09-03T06:40:15;99969.81;;;17.54;45.77
54361;BME280;40258;53.936;27.540;2022-09-03T06:42:56;99964.94;;;17.76;44.51
54361;BME280;40258;53.936;27.540;2022-09-03T06:45:26;99958.38;;;17.93;43.77
54361;BME280;40258;53.936;27.540;2022-09-03T06:47:55;99960.94;;;18.14;43.61
54361;BME280;40258;53.936;27.540;2022-09-03T06:50:24;99962.97;;;18.17;43.26
54361;BME280;40258;53.936;27.540;2022-09-03T06:52:53;99960.75;;;18.23;41.75
54361;BME280;40258;53.936;27.540;2022-09-03T06:55:23;99966.94;;;18.20;41.31
54361;BME280;40258;53.936;27.540;2022-09-03T06:57:55;99966.53;;;18.33;41.28
54361;BME280;40258;53.936;27.540;2022-09-03T07:00:24;99963.44;;;18.35;42.44
54361;BME280;40258;53.936;27.540;2022-09-03T07:02:56;99968.06;;;18.47;41.74
54361;BME280;40258;53.936;27.540;2022-09-03T07:05:25;99971.38;;;18.68;42.03
54361;BME280;40258;53.936;27.540;2022-09-03T07:07:55;99967.81;;;18.84;40.88
54361;BME280;40258;53.936;27.540;2022-09-03T07:10:25;99961.25;;;19.04;41.13
54361;BME280;40258;53.936;27.540;2022-09-03T07:12:54;99959.00;;;19.10;40.42
54361;BME280;40258;53.936;27.540;2022-09-03T07:15:23;99970.19;;;19.17;39.90
54361;BME280;40258;53.936;27.540;2022-09-03T07:17:52;99966.28;;;19.18;38.59
54361;BME280;40258;53.936;27.540;2022-09-03T07:20:21;99965.16;;;19.03;38.43
54361;BME280;40258;53.936;27.540;2022-09-03T07:22:49;99969.59;;;18.92;38.91
54361;BME280;40258;53.936;27.540;2022-09-03T07:25:17;99959.53;;;19.16;39.16
54361;BME280;40258;53.936;27.540;2022-09-03T07:27:47;99969.72;;;19.31;39.15
54361;BME280;40258;53.936;27.540;2022-09-03T07:30:17;99966.78;;;19.24;38.94
54361;BME280;40258;53.936;27.540;2022-09-03T07:32:46;99969.59;;;19.44;39.20
54361;BME280;40258;53.936;27.540;2022-09-03T07:35:17;99971.31;;;19.52;38.38
54361;BME280;40258;53.936;27.540;2022-09-03T07:37:45;99972.69;;;19.62;37.82
54361;BME280;40258;53.936;27.540;2022-09-03T07:40:14;99968.16;;;19.69;38.37
54361;BME280;40258;53.936;27.540;2022-09-03T07:42:47;99973.28;;;19.87;36.90
54361;BME280;40258;53.936;27.540;2022-09-03T07:45:17;99971.34;;;19.71;37.63
54361;BME280;40258;53.936;27.540;2022-09-03T07:47:47;99976.16;;;20.14;37.29
54361;BME280;40258;53.936;27.540;2022-09-03T07:50:16;99970.16;;;20.31;36.14
54361;BME280;40258;53.936;27.540;2022-09-03T07:52:45;99976.41;;;20.28;35.02
54361;BME280;40258;53.936;27.540;2022-09-03T07:55:14;99966.50;;;20.46;35.66
54361;BME280;40258;53.936;27.540;2022-09-03T07:57:42;99966.81;;;20.64;36.06
54361;BME280;40258;53.936;27.540;2022-09-03T08:00:14;99970.50;;;20.72;35.41
54361;BME280;40258;53.936;27.540;2022-09-03T08:02:43;99977.19;;;20.71;35.18
54361;BME280;40258;53.936;27.540;2022-09-03T08:05:12;99977.13;;;20.68;34.40
54361;BME280;40258;53.936;27.540;2022-09-03T08:07:40;99968.78;;;20.87;34.27
54361;BME280;40258;53.936;27.540;2022-09-03T08:10:09;99971.34;;;20.76;33.50
54361;BME280;40258;53.936;27.540;2022-09-03T08:12:39;99979.28;;;20.58;34.28
54361;BME280;40258;53.936;27.540;2022-09-03T08:15:08;99971.59;;;20.68;34.26
54361;BME280;40258;53.936;27.540;2022-09-03T08:17:43;99969.31;;;20.96;34.87
54361;BME280;40258;53.936;27.540;2022-09-03T08:20:12;99973.38;;;21.33;34.47
54361;BME280;40258;53.936;27.540;2022-09-03T08:22:41;99958.75;;;21.56;33.05
54361;BME280;40258;53.936;27.540;2022-09-03T08:25:09;99969.38;;;21.53;32.77
54361;BME280;40258;53.936;27.540;2022-09-03T08:27:37;99966.81;;;21.71;32.40
54361;BME280;40258;53.936;27.540;2022-09-03T08:30:07;99968.06;;;21.74;32.56
54361;BME280;40258;53.936;27.540;2022-09-03T08:32:39;99962.94;;;21.76;32.55
54361;BME280;40258;53.936;27.540;2022-09-03T08:35:08;99963.78;;;21.80;33.01
54361;BME280;40258;53.936;27.540;2022-09-03T08:37:36;99953.50;;;21.77;32.99
54361;BME280;40258;53.936;27.540;2022-09-03T08:40:06;99951.88;;;21.76;32.55
54361;BME280;40258;53.936;27.540;2022-09-03T08:42:48;99958.25;;;21.80;31.61
54361;BME280;40258;53.936;27.540;2022-09-03T08:45:22;99950.78;;;21.50;32.08
54361;BME280;40258;53.936;27.540;2022-09-03T08:47:58;99952.06;;;21.57;33.26
54361;BME280;40258;53.936;27.540;2022-09-03T08:50:32;99959.09;;;21.84;33.04
54361;BME280;40258;53.936;27.540;2022-09-03T08:53:11;99951.53;;;22.15;31.60
54361;BME280;40258;53.936;27.540;2022-09-03T08:55:48;99950.16;;;22.36;31.69
54361;BME280;40258;53.936;27.540;2022-09-03T08:58:19;99947.94;;;22.49;31.21
54361;BME280;40258;53.936;27.540;2022-09-03T09:00:54;99943.06;;;22.35;30.65
54361;BME280;40258;53.936;27.540;2022-09-03T09:03:49;99954.69;;;22.17;31.60
54361;BME280;40258;53.936;27.540;2022-09-03T09:06:27;99955.63;;;22.29;31.20
54361;BME280;40258;53.936;27.540;2022-09-03T09:09:08;99947.34;;;22.73;31.54
54361;BME280;40258;53.936;27.540;2022-09-03T09:11:49;99950.66;;;22.93;30.76
54361;BME280;40258;53.936;27.540;2022-09-03T09:14:30;99952.31;;;23.02;30.01
54361;BME280;40258;53.936;27.540;2022-09-03T09:17:13;99948.09;;;22.70;28.91
54361;BME280;40258;53.936;27.540;2022-09-03T09:19:58;99951.53;;;23.05;29.87
54361;BME280;40258;53.936;27.540;2022-09-03T09:22:34;99948.19;;;22.81;28.82
54361;BME280;40258;53.936;27.540;2022-09-03T09:25:10;99951.41;;;22.90;28.13
54361;BME280;40258;53.936;27.540;2022-09-03T09:27:50;99952.31;;;22.16;28.59
54361;BME280;40258;53.936;27.540;2022-09-03T09:30:19;99943.94;;;22.05;28.97
54361;BME280;40258;53.936;27.540;2022-09-03T09:32:48;99949.13;;;22.10;29.27
54361;BME280;40258;53.936;27.540;2022-09-03T09:35:18;99944.25;;;22.34;29.13
54361;BME280;40258;53.936;27.540;2022-09-03T09:37:52;99954.19;;;22.90;28.70
54361;BME280;40258;53.936;27.540;2022-09-03T09:40:28;99942.19;;;22.72;27.69
54361;BME280;40258;53.936;27.540;2022-09-03T09:43:09;99948.03;;;22.59;28.31
54361;BME280;40258;53.936;27.540;2022-09-03T09:45:40;99948.41;;;22.20;29.30
54361;BME280;40258;53.936;27.540;2022-09-03T09:48:17;99938.84;;;22.11;29.18
54361;BME280;40258;53.936;27.540;2022-09-03T09:50:49;99948.13;;;21.92;29.98
54361;BME280;40258;53.936;27.540;2022-09-03T09:53:30;99946.50;;;21.87;29.53
54361;BME280;40258;53.936;27.540;2022-09-03T09:55:58;99945.44;;;21.65;30.06
54361;BME280;40258;53.936;27.540;2022-09-03T09:58:31;99947.69;;;21.56;30.64
54361;BME280;40258;53.936;27.540;2022-09-03T10:01:03;99946.38;;;21.76;30.63
54361;BME280;40258;53.936;27.540;2022-09-03T10:03:47;99940.25;;;22.31;30.43
54361;BME280;40258;53.936;27.540;2022-09-03T10:06:17;99937.19;;;22.88;30.26
54361;BME280;40258;53.936;27.540;2022-09-03T10:09:08;99946.00;;;23.05;29.47
54361;BME280;40258;53.936;27.540;2022-09-03T10:11:42;99949.78;;;22.82;29.90
54361;BME280;40258;53.936;27.540;2022-09-03T10:14:19;99948.81;;;23.12;29.47
54361;BME280;40258;53.936;27.540;2022-09-03T10:16:59;99954.63;;;22.96;31.27
54361;BME280;40258;53.936;27.540;2022-09-03T10:19:40;99951.78;;;22.85;31.29
54361;BME280;40258;53.936;27.540;2022-09-03T10:22:39;99948.44;;;22.61;31.69
54361;BME280;40258;53.936;27.540;2022-09-03T10:25:14;99939.28;;;22.54;32.04
54361;BME280;40258;53.936;27.540;2022-09-03T10:27:43;99936.72;;;22.34;32.25
54361;BME280;40258;53.936;27.540;2022-09-03T10:30:12;99948.66;;;22.42;30.38
54361;BME280;40258;53.936;27.540;2022-09-03T10:32:49;99937.16;;;21.99;31.25
54361;BME280;40258;53.936;27.540;2022-09-03T10:35:29;99939.94;;;22.36;31.27
54361;BME280;40258;53.936;27.540;2022-09-03T10:38:08;99936.22;;;22.25;30.86
54361;BME280;40258;53.936;27.540;2022-09-03T10:40:49;99935.69;;;22.12;31.11
54361;BME280;40258;53.936;27.540;2022-09-03T10:43:40;99937.56;;;22.01;31.28
54361;BME280;40258;53.936;27.540;2022-09-03T10:46:16;99931.28;;;22.04;31.04
54361;BME280;40258;53.936;27.540;2022-09-03T10:49:30;99942.84;;;22.17;30.77
54361;BME280;40258;53.936;27.540;2022-09-03T10:52:09;99945.34;;;21.58;31.45
54361;BME280;40258;53.936;27.540;2022-09-03T10:54:54;99942.50;;;21.50;31.42
54361;BME280;40258;53.936;27.540;2022-09-03T10:57:36;99938.19;;;21.53;32.11
54361;BME280;40258;53.936;27.540;2022-09-03T11:00:11;99939.88;;;21.95;30.22
54361;BME280;40258;53.936;27.540;2022-09-03T11:06:14;99942.19;;;21.56;31.38
54361;BME280;40258;53.936;27.540;2022-09-03T11:08:47;99939.56;;;21.66;31.41
54361;BME280;40258;53.936;27.540;2022-09-03T11:11:24;99939.19;;;21.68;31.15
54361;BME280;40258;53.936;27.540;2022-09-03T11:13:58;99936.41;;;22.02;30.43
54361;BME280;40258;53.936;27.540;2022-09-03T11:16:32;99931.78;;;22.13;30.81
54361;BME280;40258;53.936;27.540;2022-09-03T11:19:08;99939.66;;;22.11;31.07
54361;BME280;40258;53.936;27.540;2022-09-03T11:21:38;99930.88;;;22.39;30.29
54361;BME280;40258;53.936;27.540;2022-09-03T11:24:13;99926.38;;;22.27;29.76
54361;BME280;40258;53.936;27.540;2022-09-03T11:26:50;99930.56;;;21.77;30.88
54361;BME280;40258;53.936;27.540;2022-09-03T11:29:24;99921.09;;;21.74;31.64
54361;BME280;40258;53.936;27.540;2022-09-03T11:32:02;99924.34;;;21.83;29.81
54361;BME280;40258;53.936;27.540;2022-09-03T11:34:45;99927.28;;;21.64;29.98
54361;BME280;40258;53.936;27.540;2022-09-03T11:37:21;99919.06;;;22.05;27.94
54361;BME280;40258;53.936;27.540;2022-09-03T11:39:56;99915.59;;;22.15;28.57
54361;BME280;40258;53.936;27.540;2022-09-03T11:42:35;99914.13;;;21.87;28.32
54361;BME280;40258;53.936;27.540;2022-09-03T11:45:22;99923.75;;;22.01;26.86
54361;BME280;40258;53.936;27.540;2022-09-03T11:47:51;99905.03;;;22.24;25.98
54361;BME280;40258;53.936;27.540;2022-09-03T11:50:23;99904.31;;;22.31;25.77
54361;BME280;40258;53.936;27.540;2022-09-03T11:52:54;99901.25;;;22.40;25.72
54361;BME280;40258;53.936;27.540;2022-09-03T11:55:51;99891.69;;;22.30;25.17
54361;BME280;40258;53.936;27.540;2022-09-03T11:58:26;99885.22;;;22.19;24.79
54361;BME280;40258;53.936;27.540;2022-09-03T12:00:58;99883.47;;;22.00;25.75
54361;BME280;40258;53.936;27.540;2022-09-03T12:03:36;99887.72;;;22.31;25.81
54361;BME280;40258;53.936;27.540;2022-09-03T12:09:50;99885.47;;;22.03;25.63
54361;BME280;40258;53.936;27.540;2022-09-03T12:12:44;99883.88;;;21.64;26.60
54361;BME280;40258;53.936;27.540;2022-09-03T12:15:39;99882.63;;;21.28;26.20
54361;BME280;40258;53.936;27.540;2022-09-03T12:18:17;99887.22;;;21.16;27.15
54361;BME280;40258;53.936;27.540;2022-09-03T12:21:02;99879.59;;;21.06;27.48
54361;BME280;40258;53.936;27.540;2022-09-03T12:23:33;99881.75;;;20.90;27.02
54361;BME280;40258;53.936;27.540;2022-09-03T12:26:06;99892.81;;;20.43;27.70
54361;BME280;40258;53.936;27.540;2022-09-03T12:28:37;99881.53;;;20.06;28.83
54361;BME280;40258;53.936;27.540;2022-09-03T12:31:15;99883.78;;;20.00;29.49
54361;BME280;40258;53.936;27.540;2022-09-03T12:33:59;99898.47;;;19.85;29.44
54361;BME280;40258;53.936;27.540;2022-09-03T12:36:36;99895.72;;;19.65;30.68
54361;BME280;40258;53.936;27.540;2022-09-03T12:39:09;99890.22;;;19.65;31.31
54361;BME280;40258;53.936;27.540;2022-09-03T12:41:37;99880.38;;;19.84;31.07
54361;BME280;40258;53.936;27.540;2022-09-03T12:44:06;99890.09;;;19.78;30.77
54361;BME280;40258;53.936;27.540;2022-09-03T12:46:38;99885.28;;;19.74;30.78
54361;BME280;40258;53.936;27.540;2022-09-03T12:49:13;99888.75;;;19.71;31.35
54361;BME280;40258;53.936;27.540;2022-09-03T12:51:42;99885.06;;;19.83;31.63
54361;BME280;40258;53.936;27.540;2022-09-03T12:54:12;99883.91;;;19.84;31.34
54361;BME280;40258;53.936;27.540;2022-09-03T12:56:42;99877.31;;;19.89;30.15
54361;BME280;40258;53.936;27.540;2022-09-03T12:59:16;99885.25;;;19.94;30.70
54361;BME280;40258;53.936;27.540;2022-09-03T13:01:50;99880.56;;;20.18;30.70
54361;BME280;40258;53.936;27.540;2022-09-03T13:04:24;99874.56;;;20.35;31.22
54361;BME280;40258;53.936;27.540;2022-09-03T13:06:59;99875.31;;;20.32;31.30
54361;BME280;40258;53.936;27.540;2022-09-03T13:09:33;99872.78;;;20.46;31.55
54361;BME280;40258;53.936;27.540;2022-09-03T13:12:04;99864.28;;;20.32;32.66
54361;BME280;40258;53.936;27.540;2022-09-03T13:14:42;99868.69;;;20.37;32.80
54361;BME280;40258;53.936;27.540;2022-09-03T13:17:34;99877.50;;;20.46;31.95
54361;BME280;40258;53.936;27.540;2022-09-03T13:20:32;99870.34;;;19.95;33.51
54361;BME280;40258;53.936;27.540;2022-09-03T13:23:22;99867.25;;;19.77;33.78
54361;BME280;40258;53.936;27.540;2022-09-03T13:26:04;99858.88;;;19.73;34.28
54361;BME280;40258;53.936;27.540;2022-09-03T13:28:52;99858.75;;;19.66;35.09
54361;BME280;40258;53.936;27.540;2022-09-03T13:31:33;99859.91;;;19.85;35.02
54361;BME280;40258;53.936;27.540;2022-09-03T13:34:08;99856.41;;;19.88;35.42
54361;BME280;40258;53.936;27.540;2022-09-03T13:36:47;99861.34;;;19.98;34.90